Time;durP1;ratioP1;P1;durP2;ratioP2;P2;SDS_P1;SDS_P2;PMS_P1;PMS_P2;Temp;Humidity;BMP_temperature;BMP_pressure;BME280_temperature;BME280_humidity;BME280_pressure;Samples;Min_cycle;Max_cycle;Signal;HPM_P1;HPM_P2
2022/03/16 00:02:19;;;;;;;15.20;6.97;;;6.40;92.40;;;;;;6310253;22;20003;-66
2022/03/16 00:04:47;;;;;;;12.52;7.00;;;6.50;91.90;;;;;;6310359;22;20014;-65
2022/03/16 00:07:12;;;;;;;15.20;7.15;;;6.50;92.30;;;;;;6309660;22;20015;-66
2022/03/16 00:09:38;;;;;;;12.73;7.72;;;6.40;92.60;;;;;;6308614;22;20004;-66
2022/03/16 00:12:04;;;;;;;18.52;10.10;;;6.40;92.60;;;;;;6309971;22;19999;-65
2022/03/16 00:14:30;;;;;;;13.85;7.75;;;6.40;92.40;;;;;;6309918;22;20057;-66
2022/03/16 00:16:55;;;;;;;13.00;7.45;;;6.30;92.50;;;;;;6310030;22;20002;-66
2022/03/16 00:19:21;;;;;;;15.25;7.70;;;6.30;92.40;;;;;;6309890;22;20375;-64
2022/03/16 00:21:47;;;;;;;17.25;6.75;;;6.40;92.50;;;;;;6309895;22;20003;-65
2022/03/16 00:24:12;;;;;;;15.93;7.25;;;6.30;92.50;;;;;;6308603;22;20003;-65
2022/03/16 00:26:38;;;;;;;13.07;7.68;;;6.40;92.00;;;;;;6309721;22;19995;-65
2022/03/16 00:29:06;;;;;;;15.65;10.05;;;6.40;92.10;;;;;;6309648;22;20014;-65
2022/03/16 00:31:33;;;;;;;18.20;9.68;;;6.50;92.00;;;;;;6310159;22;20023;-65
2022/03/16 00:34:01;;;;;;;17.48;11.07;;;6.60;92.10;;;;;;6309978;22;20025;-65
2022/03/16 00:36:26;;;;;;;15.95;10.73;;;6.60;92.50;;;;;;6309591;22;20003;-65
2022/03/16 00:38:52;;;;;;;17.15;10.60;;;6.60;91.80;;;;;;6309277;22;20237;-65
2022/03/16 00:41:18;;;;;;;13.68;9.73;;;6.60;91.40;;;;;;6308283;22;20003;-65
2022/03/16 00:43:44;;;;;;;15.55;9.63;;;6.70;91.70;;;;;;6309605;22;20082;-64
2022/03/16 00:46:10;;;;;;;15.73;9.35;;;6.60;92.10;;;;;;6309510;22;19999;-65
2022/03/16 00:48:35;;;;;;;14.43;7.45;;;6.60;92.30;;;;;;6309329;22;20000;-65
2022/03/16 00:51:01;;;;;;;10.60;6.90;;;6.50;92.10;;;;;;6309413;22;19995;-65
2022/03/16 00:53:28;;;;;;;11.98;7.35;;;6.40;92.30;;;;;;6309323;22;20025;-64
2022/03/16 00:55:54;;;;;;;12.93;7.90;;;6.40;92.40;;;;;;6307970;22;19999;-66
2022/03/16 00:58:19;;;;;;;22.30;14.93;;;6.40;91.70;;;;;;6309762;22;20047;-66
2022/03/16 01:00:45;;;;;;;15.73;7.95;;;6.40;91.10;;;;;;6309910;22;20007;-66
2022/03/16 01:03:12;;;;;;;13.80;9.05;;;6.50;91.50;;;;;;6309490;22;20272;-65
2022/03/16 01:05:37;;;;;;;33.10;21.95;;;6.40;92.10;;;;;;6309116;22;20030;-65
2022/03/16 01:08:03;;;;;;;38.78;26.17;;;6.50;89.90;;;;;;6308992;22;20007;-65
2022/03/16 01:10:29;;;;;;;38.58;25.67;;;6.80;88.20;;;;;;6307752;22;20002;-65
2022/03/16 01:12:55;;;;;;;33.55;24.25;;;7.00;88.30;;;;;;6309823;22;20052;-66
2022/03/16 01:15:23;;;;;;;36.35;25.77;;;7.10;88.20;;;;;;6310659;22;19999;-65
2022/03/16 01:17:52;;;;;;;36.33;25.63;;;7.10;88.50;;;;;;6310765;22;20038;-65
2022/03/16 01:20:18;;;;;;;32.10;23.25;;;7.10;88.60;;;;;;6310662;22;20010;-66
2022/03/16 01:22:45;;;;;;;30.58;22.15;;;7.20;88.60;;;;;;6310024;22;20011;-65
2022/03/16 01:25:11;;;;;;;28.05;19.50;;;7.20;89.00;;;;;;6308686;22;20048;-66
2022/03/16 01:27:37;;;;;;;24.40;17.67;;;7.20;89.40;;;;;;6310241;22;20011;-66
2022/03/16 01:30:04;;;;;;;34.42;22.23;;;7.20;89.50;;;;;;6310622;22;20364;-66
2022/03/16 01:32:30;;;;;;;32.13;22.10;;;7.20;90.10;;;;;;6310451;22;20003;-66
2022/03/16 01:34:56;;;;;;;34.05;23.55;;;7.20;90.30;;;;;;6310127;22;20007;-67
2022/03/16 01:37:22;;;;;;;37.45;26.52;;;7.30;90.50;;;;;;6309716;22;20007;-65
2022/03/16 01:39:47;;;;;;;33.22;23.25;;;7.30;90.50;;;;;;6309421;22;20014;-66
2022/03/16 01:42:14;;;;;;;36.40;25.95;;;7.30;90.40;;;;;;6311773;22;20014;-65
2022/03/16 01:44:46;;;;;;;34.85;24.88;;;7.30;90.40;;;;;;6311978;22;20009;-66
2022/03/16 01:47:13;;;;;;;35.72;25.27;;;7.30;90.30;;;;;;6311748;22;20007;-66
2022/03/16 01:49:39;;;;;;;40.28;27.65;;;7.30;90.90;;;;;;6312249;22;19999;-66
2022/03/16 01:52:06;;;;;;;37.65;27.40;;;7.30;90.70;;;;;;6312051;22;19999;-65
2022/03/16 01:54:32;;;;;;;35.58;26.55;;;7.30;90.60;;;;;;6310367;22;20369;-66
2022/03/16 01:57:01;;;;;;;34.70;24.33;;;7.30;90.60;;;;;;6311633;22;20062;-66
2022/03/16 01:59:27;;;;;;;37.30;25.80;;;7.30;90.50;;;;;;6312204;22;20303;-66
2022/03/16 02:01:52;;;;;;;33.88;24.73;;;7.30;90.70;;;;;;6312050;22;20003;-66
2022/03/16 02:04:18;;;;;;;36.53;25.52;;;7.40;90.70;;;;;;6312222;22;19995;-65
2022/03/16 02:06:44;;;;;;;36.88;26.30;;;7.40;90.60;;;;;;6311684;22;20081;-64
2022/03/16 02:09:12;;;;;;;37.10;26.52;;;7.40;90.70;;;;;;6310015;22;20352;-65
2022/03/16 02:11:42;;;;;;;41.60;29.70;;;7.40;90.80;;;;;;6311726;22;20385;-64
2022/03/16 02:14:08;;;;;;;38.42;26.88;;;7.40;90.80;;;;;;6311720;22;20033;-64
2022/03/16 02:16:34;;;;;;;41.13;27.73;;;7.40;90.70;;;;;;6311843;22;20450;-66
2022/03/16 02:19:03;;;;;;;41.25;28.60;;;7.40;90.90;;;;;;6312268;22;20003;-67
2022/03/16 02:21:30;;;;;;;45.85;31.10;;;7.40;91.00;;;;;;6311221;22;19999;-67
2022/03/16 02:23:56;;;;;;;43.63;29.65;;;7.40;91.00;;;;;;6310583;22;20015;-66
2022/03/16 02:26:25;;;;;;;38.28;28.42;;;7.40;91.20;;;;;;6311155;22;20356;-67
2022/03/16 02:28:52;;;;;;;38.88;27.30;;;7.40;91.00;;;;;;6311681;22;20027;-67
2022/03/16 02:31:17;;;;;;;40.33;28.08;;;7.40;90.90;;;;;;6311840;22;20006;-67
2022/03/16 02:33:43;;;;;;;40.10;27.90;;;7.40;90.70;;;;;;6311326;22;20003;-65
2022/03/16 02:36:09;;;;;;;42.17;28.45;;;7.40;90.90;;;;;;6311934;22;20003;-66
2022/03/16 02:38:39;;;;;;;38.97;26.50;;;7.40;91.10;;;;;;6311596;22;20010;-66
2022/03/16 02:41:04;;;;;;;34.70;23.42;;;7.40;91.20;;;;;;6310024;22;20070;-66
2022/03/16 02:43:30;;;;;;;31.38;20.92;;;7.30;91.30;;;;;;6311497;22;20442;-65
2022/03/16 02:45:56;;;;;;;35.30;22.92;;;7.30;91.20;;;;;;6311579;22;20053;-66
2022/03/16 02:48:22;;;;;;;39.38;24.10;;;7.20;91.50;;;;;;6311356;22;19999;-65
2022/03/16 02:50:48;;;;;;;36.17;23.92;;;7.20;91.50;;;;;;6310899;22;20010;-66
2022/03/16 02:53:18;;;;;;;30.55;21.45;;;7.20;91.40;;;;;;6311754;22;19999;-67
2022/03/16 02:55:44;;;;;;;34.35;21.85;;;7.10;91.50;;;;;;6309893;22;20415;-67
2022/03/16 02:58:11;;;;;;;36.13;23.67;;;7.10;91.60;;;;;;6310916;22;20010;-65
2022/03/16 03:00:36;;;;;;;42.67;26.45;;;7.10;91.30;;;;;;6311436;22;20007;-66
2022/03/16 03:03:02;;;;;;;29.95;21.48;;;7.00;90.90;;;;;;6311441;22;20084;-66
2022/03/16 03:05:28;;;;;;;35.88;23.90;;;7.00;90.70;;;;;;6310930;22;20392;-65
2022/03/16 03:07:54;;;;;;;35.13;22.67;;;7.00;90.20;;;;;;6311374;22;19999;-65
2022/03/16 03:10:20;;;;;;;37.25;24.25;;;6.90;90.30;;;;;;6309498;22;20030;-66
2022/03/16 03:12:46;;;;;;;35.40;23.20;;;6.90;89.50;;;;;;6311983;22;20021;-65
2022/03/16 03:15:15;;;;;;;34.58;21.92;;;7.00;90.00;;;;;;6311298;22;20022;-66
2022/03/16 03:17:42;;;;;;;28.05;19.33;;;6.90;89.80;;;;;;6311303;22;20080;-67
2022/03/16 03:20:09;;;;;;;32.47;21.27;;;6.90;89.70;;;;;;6311181;22;19999;-66
2022/03/16 03:22:35;;;;;;;32.08;21.08;;;6.90;89.70;;;;;;6311758;22;20037;-66
2022/03/16 03:25:02;;;;;;;27.17;18.63;;;7.00;90.00;;;;;;6282507;22;20003;-65
2022/03/16 03:27:27;;;;;;;35.17;22.58;;;7.00;90.10;;;;;;6311215;22;20356;-66
2022/03/16 03:29:56;;;;;;;33.05;21.67;;;6.90;90.30;;;;;;6311303;22;20014;-66
2022/03/16 03:32:21;;;;;;;34.00;23.20;;;7.00;90.00;;;;;;6311263;22;20418;-66
2022/03/16 03:34:50;;;;;;;36.42;22.98;;;7.10;90.60;;;;;;6311043;22;20070;-64
2022/03/16 03:37:16;;;;;;;32.10;20.52;;;7.10;91.10;;;;;;6310827;22;20007;-66
2022/03/16 03:39:42;;;;;;;32.70;20.70;;;7.10;91.00;;;;;;6309603;22;20059;-67
2022/03/16 03:42:08;;;;;;;38.03;22.13;;;7.10;91.40;;;;;;6310776;22;20404;-66
2022/03/16 03:44:37;;;;;;;33.47;22.13;;;7.10;91.70;;;;;;6311234;22;20025;-66
2022/03/16 03:47:08;;;;;;;32.22;20.55;;;7.10;91.80;;;;;;6310771;22;20021;-66
2022/03/16 03:49:36;;;;;;;33.05;22.02;;;7.00;91.80;;;;;;6310859;22;19999;-67
2022/03/16 03:52:02;;;;;;;53.03;35.28;;;6.90;92.10;;;;;;6311135;22;20008;-65
2022/03/16 03:54:28;;;;;;;71.97;49.15;;;6.90;91.30;;;;;;6309104;22;20070;-65
2022/03/16 03:56:53;;;;;;;71.85;55.90;;;6.90;91.60;;;;;;6309831;22;20052;-66
2022/03/16 03:59:20;;;;;;;44.20;32.38;;;6.90;91.40;;;;;;6310737;22;20007;-67
2022/03/16 04:01:46;;;;;;;37.60;24.42;;;6.90;90.90;;;;;;6309909;22;20391;-66
2022/03/16 04:04:11;;;;;;;37.85;28.77;;;6.90;91.00;;;;;;6310371;22;20026;-66
2022/03/16 04:06:37;;;;;;;33.67;22.38;;;7.00;91.10;;;;;;6310040;22;20011;-66
2022/03/16 04:09:04;;;;;;;37.42;24.30;;;7.00;91.30;;;;;;6309151;22;20000;-65
2022/03/16 04:11:33;;;;;;;32.83;21.98;;;7.00;91.40;;;;;;6310490;22;20022;-66
2022/03/16 04:13:58;;;;;;;34.38;22.45;;;6.90;91.70;;;;;;6310516;22;19999;-66
2022/03/16 04:16:24;;;;;;;35.65;22.60;;;6.80;91.60;;;;;;6310201;22;20364;-66
2022/03/16 04:18:50;;;;;;;35.00;23.83;;;6.80;92.00;;;;;;6310628;22;19999;-66
2022/03/16 04:21:16;;;;;;;37.40;24.05;;;6.70;91.80;;;;;;6310134;22;20078;-65
2022/03/16 04:23:49;;;;;;;36.60;24.20;;;6.60;91.70;;;;;;6310396;22;20077;-66
2022/03/16 04:26:15;;;;;;;32.33;21.80;;;6.50;91.40;;;;;;6308537;22;20245;-66
2022/03/16 04:28:41;;;;;;;35.10;22.85;;;6.50;90.90;;;;;;6310002;22;20049;-66
2022/03/16 04:31:07;;;;;;;28.90;20.20;;;6.40;90.70;;;;;;6310218;22;19999;-66
2022/03/16 04:33:33;;;;;;;32.75;20.15;;;6.40;90.30;;;;;;6282832;22;19999;-66
2022/03/16 04:35:59;;;;;;;37.22;24.27;;;6.40;90.00;;;;;;6310465;22;20261;-66
2022/03/16 04:38:24;;;;;;;39.20;23.95;;;6.30;89.90;;;;;;6310383;22;20390;-65
2022/03/16 04:40:50;;;;;;;35.92;22.90;;;6.30;89.60;;;;;;6308206;22;20078;-67
2022/03/16 04:43:19;;;;;;;33.38;20.83;;;6.30;89.40;;;;;;6309701;22;20009;-65
2022/03/16 04:45:44;;;;;;;38.08;24.50;;;6.20;89.40;;;;;;6309942;22;20010;-65
2022/03/16 04:48:11;;;;;;;40.15;24.33;;;6.20;89.10;;;;;;6309971;22;20121;-65
2022/03/16 04:50:43;;;;;;;36.45;23.00;;;6.20;89.10;;;;;;6309943;22;19999;-66
2022/03/16 04:53:08;;;;;;;31.00;22.23;;;6.10;89.00;;;;;;6310562;22;20242;-65
2022/03/16 04:55:37;;;;;;;39.20;24.73;;;6.10;88.50;;;;;;6308626;22;20053;-66
2022/03/16 04:58:12;;;;;;;33.00;21.05;;;6.10;88.50;;;;;;6309882;22;19999;-65
2022/03/16 05:00:38;;;;;;;32.35;22.02;;;6.10;88.40;;;;;;6309650;22;20027;-65
2022/03/16 05:03:04;;;;;;;37.00;23.40;;;6.00;88.50;;;;;;6310217;22;20395;-64
2022/03/16 05:05:30;;;;;;;40.22;24.73;;;6.00;87.90;;;;;;6277778;22;20019;-64
2022/03/16 05:07:56;;;;;;;39.95;24.33;;;6.00;87.90;;;;;;6279089;22;20010;-64
2022/03/16 05:10:22;;;;;;;39.83;24.17;;;6.00;87.30;;;;;;6277726;22;20346;-65
2022/03/16 05:12:50;;;;;;;32.97;20.77;;;5.90;87.40;;;;;;6279228;22;19997;-67
2022/03/16 05:15:18;;;;;;;28.70;19.98;;;5.90;86.70;;;;;;6280924;22;19999;-66
2022/03/16 05:17:45;;;;;;;31.95;21.25;;;6.00;86.40;;;;;;6280972;22;20011;-66
2022/03/16 05:20:12;;;;;;;35.55;23.02;;;6.10;87.10;;;;;;6280612;22;20014;-66
2022/03/16 05:22:52;;;;;;;39.08;23.23;;;6.00;87.60;;;;;;6281015;22;20326;-67
2022/03/16 05:25:26;;;;;;;33.03;22.05;;;5.90;87.80;;;;;;6279468;22;20006;-67
2022/03/16 05:27:53;;;;;;;40.35;24.10;;;5.90;87.50;;;;;;6281187;22;20054;-66
2022/03/16 05:30:20;;;;;;;37.08;23.88;;;5.80;87.60;;;;;;6280606;22;20238;-66
2022/03/16 05:32:46;;;;;;;36.45;23.58;;;5.80;87.30;;;;;;6280613;22;20000;-66
2022/03/16 05:35:13;;;;;;;36.95;22.50;;;5.80;87.20;;;;;;6280852;22;20050;-65
2022/03/16 05:37:40;;;;;;;32.45;20.70;;;5.70;87.30;;;;;;6281168;22;20027;-66
2022/03/16 05:40:08;;;;;;;32.42;21.00;;;5.70;86.90;;;;;;6280264;22;20053;-66
2022/03/16 05:42:34;;;;;;;36.60;22.98;;;5.70;87.10;;;;;;6280476;22;20038;-67
2022/03/16 05:45:00;;;;;;;35.20;22.95;;;5.70;86.80;;;;;;6280387;22;20003;-66
2022/03/16 05:47:29;;;;;;;40.28;23.80;;;5.60;87.30;;;;;;6280941;22;20007;-65
2022/03/16 05:49:56;;;;;;;58.80;33.53;;;5.60;86.60;;;;;;6281108;22;19996;-65
2022/03/16 05:52:23;;;;;;;58.20;33.38;;;5.60;86.60;;;;;;6281115;22;19999;-66
2022/03/16 05:54:54;;;;;;;49.05;30.55;;;5.60;86.70;;;;;;6279779;22;20003;-65
2022/03/16 05:57:20;;;;;;;59.22;36.67;;;5.60;86.70;;;;;;6278682;22;20418;-67
2022/03/16 05:59:49;;;;;;;70.15;38.55;;;5.60;86.60;;;;;;6281095;22;20020;-66
2022/03/16 06:02:15;;;;;;;79.43;46.00;;;5.60;86.30;;;;;;6280021;22;19996;-65
2022/03/16 06:04:45;;;;;;;68.75;42.75;;;5.60;86.20;;;;;;6280964;22;20028;-67
2022/03/16 06:07:14;;;;;;;73.80;41.03;;;5.60;86.10;;;;;;6310120;22;20023;-67
2022/03/16 06:09:44;;;;;;;97.32;48.47;;;5.60;86.10;;;;;;6310153;22;20003;-66
2022/03/16 06:12:10;;;;;;;78.10;45.78;;;5.50;86.00;;;;;;6311928;22;20006;-65
2022/03/16 06:14:36;;;;;;;62.08;36.75;;;5.50;85.70;;;;;;6312161;22;20368;-65
2022/03/16 06:17:05;;;;;;;54.38;35.90;;;5.50;85.30;;;;;;6312428;22;20001;-65
2022/03/16 06:19:33;;;;;;;69.28;39.28;;;5.50;85.00;;;;;;6312377;22;20412;-65
2022/03/16 06:21:59;;;;;;;79.85;42.65;;;5.60;84.60;;;;;;6312492;22;20298;-66
2022/03/16 06:24:25;;;;;;;79.15;38.72;;;5.60;85.60;;;;;;6310751;22;19999;-66
2022/03/16 06:26:50;;;;;;;65.45;36.00;;;5.50;86.10;;;;;;6312210;22;19995;-66
2022/03/16 06:29:16;;;;;;;74.80;32.05;;;5.50;85.50;;;;;;6312125;22;20010;-64
2022/03/16 06:31:41;;;;;;;39.63;28.55;;;5.60;84.50;;;;;;6312121;22;20022;-66
2022/03/16 06:34:07;;;;;;;43.95;31.02;;;5.70;84.40;;;;;;6312075;22;20070;-65
2022/03/16 06:36:33;;;;;;;53.40;32.90;;;5.70;84.20;;;;;;6312178;22;20071;-66
2022/03/16 06:38:58;;;;;;;70.05;42.63;;;5.90;84.20;;;;;;6311010;22;19999;-66
2022/03/16 06:41:24;;;;;;;54.08;35.90;;;5.90;85.30;;;;;;6312340;22;20307;-66
2022/03/16 06:43:50;;;;;;;140.38;52.50;;;5.80;85.00;;;;;;6312228;22;20108;-66
2022/03/16 06:46:16;;;;;;;94.72;45.38;;;5.90;85.00;;;;;;6312422;22;19999;-67
2022/03/16 06:48:42;;;;;;;82.13;45.20;;;5.90;84.80;;;;;;6312055;22;20007;-67
2022/03/16 06:51:08;;;;;;;60.08;39.80;;;6.00;85.20;;;;;;6310737;22;20006;-65
2022/03/16 06:53:34;;;;;;;66.20;42.72;;;6.10;84.90;;;;;;6311514;22;20003;-66
2022/03/16 06:56:02;;;;;;;86.45;47.67;;;6.20;84.60;;;;;;6310197;22;20402;-67
2022/03/16 06:58:28;;;;;;;68.15;41.08;;;6.30;86.20;;;;;;6310834;22;20009;-66
2022/03/16 07:00:54;;;;;;;50.88;34.15;;;6.30;85.70;;;;;;6312037;22;20333;-67
2022/03/16 07:03:19;;;;;;;43.67;30.25;;;6.40;86.40;;;;;;6284215;22;20007;-68
2022/03/16 07:05:45;;;;;;;64.38;34.50;;;6.50;86.40;;;;;;6312049;22;20338;-65
2022/03/16 07:08:13;;;;;;;49.72;32.40;;;6.60;88.00;;;;;;6312015;22;20003;-66
2022/03/16 07:10:42;;;;;;;38.20;27.58;;;6.70;88.30;;;;;;6310670;22;19999;-66
2022/03/16 07:13:09;;;;;;;39.45;27.75;;;6.80;88.90;;;;;;6311599;22;20029;-66
2022/03/16 07:15:35;;;;;;;37.95;26.35;;;6.90;90.60;;;;;;6311392;22;20403;-67
2022/03/16 07:18:04;;;;;;;41.00;27.75;;;7.10;91.40;;;;;;6311556;22;20404;-66
2022/03/16 07:20:32;;;;;;;34.25;24.50;;;7.20;93.50;;;;;;6311799;22;20007;-67
2022/03/16 07:23:04;;;;;;;32.15;22.52;;;7.20;94.20;;;;;;6311512;22;20003;-66
2022/03/16 07:25:30;;;;;;;33.22;24.45;;;7.40;94.30;;;;;;6310383;22;20070;-66
2022/03/16 07:27:56;;;;;;;33.53;24.65;;;7.60;95.30;;;;;;6311554;22;20057;-66
2022/03/16 07:30:25;;;;;;;32.45;23.10;;;7.80;95.90;;;;;;6311486;22;20006;-66
2022/03/16 07:32:51;;;;;;;30.77;21.65;;;8.00;97.20;;;;;;6311085;22;20320;-66
2022/03/16 07:35:26;;;;;;;29.30;21.77;;;8.10;97.50;;;;;;6311509;22;19999;-67
2022/03/16 07:37:53;;;;;;;30.92;23.55;;;8.30;98.00;;;;;;6311740;22;20291;-67
2022/03/16 07:40:18;;;;;;;29.83;21.60;;;8.50;98.00;;;;;;6310090;22;20007;-67
2022/03/16 07:42:49;;;;;;;27.08;20.48;;;8.60;98.00;;;;;;6311253;22;20110;-67
2022/03/16 07:45:16;;;;;;;25.88;19.98;;;8.60;98.00;;;;;;6311059;22;20003;-65
2022/03/16 07:47:42;;;;;;;25.40;19.92;;;8.60;98.00;;;;;;6311440;22;20388;-66
2022/03/16 07:50:14;;;;;;;22.52;17.38;;;8.80;98.00;;;;;;6311280;22;20026;-66
2022/03/16 07:52:41;;;;;;;22.90;18.17;;;9.20;98.00;;;;;;6311801;22;19999;-67
2022/03/16 07:55:08;;;;;;;24.27;19.23;;;9.60;98.00;;;;;;6309485;22;20000;-65
2022/03/16 07:57:34;;;;;;;22.55;17.33;;;9.70;98.00;;;;;;6311671;22;20310;-65
2022/03/16 08:00:02;;;;;;;27.20;20.33;;;9.90;98.00;;;;;;6311548;22;20260;-65
2022/03/16 08:02:28;;;;;;;25.52;20.05;;;10.20;98.00;;;;;;6311496;22;20010;-65
2022/03/16 08:04:57;;;;;;;25.88;19.75;;;10.10;98.00;;;;;;6311235;22;20015;-65
2022/03/16 08:07:30;;;;;;;24.40;19.88;;;10.40;98.00;;;;;;6311541;22;20014;-68
2022/03/16 08:09:58;;;;;;;32.65;22.75;;;10.60;98.00;;;;;;6309779;22;20000;-67
2022/03/16 08:12:27;;;;;;;31.88;21.73;;;10.70;97.60;;;;;;6310364;22;20026;-67
2022/03/16 08:14:53;;;;;;;28.25;19.52;;;10.70;97.40;;;;;;6310151;22;20003;-67
2022/03/16 08:17:19;;;;;;;22.63;17.90;;;10.50;97.40;;;;;;6309573;22;20029;-67
2022/03/16 08:19:45;;;;;;;22.70;17.83;;;10.40;97.90;;;;;;6311438;22;20002;-67
2022/03/16 08:22:12;;;;;;;37.85;25.98;;;10.50;98.00;;;;;;6310958;22;19999;-66
2022/03/16 08:24:38;;;;;;;31.50;22.80;;;10.70;97.70;;;;;;6283191;22;20022;-66
2022/03/16 08:27:07;;;;;;;26.80;20.50;;;10.90;97.50;;;;;;6310829;22;20353;-66
2022/03/16 08:29:33;;;;;;;26.90;20.55;;;10.50;97.50;;;;;;6311102;22;20095;-66
2022/03/16 08:31:58;;;;;;;25.67;19.52;;;10.40;98.00;;;;;;6311153;22;20295;-68
2022/03/16 08:34:24;;;;;;;23.52;19.05;;;10.50;98.00;;;;;;6311082;22;20003;-66
2022/03/16 08:36:51;;;;;;;23.92;18.95;;;10.80;97.70;;;;;;6311254;22;20306;-66
2022/03/16 08:39:17;;;;;;;25.98;19.17;;;11.20;97.20;;;;;;6309601;22;20442;-66
2022/03/16 08:41:42;;;;;;;25.80;19.63;;;11.60;96.70;;;;;;6311177;22;20396;-66
2022/03/16 08:44:08;;;;;;;23.02;17.02;;;11.70;96.20;;;;;;6311132;22;20000;-66
2022/03/16 08:46:37;;;;;;;29.95;19.77;;;12.00;96.20;;;;;;6310927;22;20023;-66
2022/03/16 08:49:04;;;;;;;23.67;16.80;;;12.30;95.20;;;;;;6310954;22;20035;-66
2022/03/16 08:51:29;;;;;;;20.52;14.02;;;12.70;93.90;;;;;;6311290;22;20003;-66
2022/03/16 08:53:55;;;;;;;14.77;11.10;;;13.10;92.40;;;;;;6310090;22;19999;-66
2022/03/16 08:56:23;;;;;;;12.18;9.45;;;13.10;90.90;;;;;;6310858;22;20080;-66
2022/03/16 08:58:49;;;;;;;12.70;9.80;;;13.00;91.60;;;;;;6311001;22;20003;-67
2022/03/16 09:01:15;;;;;;;13.05;9.32;;;13.00;91.50;;;;;;6311053;22;20006;-67
2022/03/16 09:03:40;;;;;;;12.05;9.23;;;13.20;90.50;;;;;;6310926;22;20003;-67
2022/03/16 09:06:06;;;;;;;13.82;10.27;;;13.20;90.10;;;;;;6310836;22;20412;-66
2022/03/16 09:08:32;;;;;;;18.15;12.15;;;13.00;89.20;;;;;;6310962;22;20004;-67
2022/03/16 09:10:58;;;;;;;17.10;11.90;;;12.90;90.10;;;;;;6309909;22;20014;-66
2022/03/16 09:13:24;;;;;;;17.15;11.32;;;12.80;90.90;;;;;;6310868;22;19999;-66
2022/03/16 09:15:53;;;;;;;16.02;11.40;;;12.60;90.80;;;;;;6311018;22;20003;-67
2022/03/16 09:18:18;;;;;;;15.65;10.55;;;12.60;91.00;;;;;;6310749;22;20015;-66
2022/03/16 09:20:45;;;;;;;16.88;10.85;;;12.90;91.00;;;;;;6311052;22;20074;-66
2022/03/16 09:23:10;;;;;;;18.77;11.45;;;13.20;90.20;;;;;;6311235;22;20064;-66
2022/03/16 09:25:36;;;;;;;15.73;11.75;;;13.30;89.30;;;;;;6309784;22;20007;-66
2022/03/16 09:28:02;;;;;;;13.35;10.13;;;13.60;88.20;;;;;;6310540;22;19999;-66
2022/03/16 09:30:28;;;;;;;17.10;11.60;;;13.80;87.80;;;;;;6310873;22;20018;-67
2022/03/16 09:32:57;;;;;;;17.05;11.55;;;13.50;87.60;;;;;;6310622;22;20007;-66
2022/03/16 09:35:23;;;;;;;20.67;11.57;;;13.80;88.10;;;;;;6310459;22;19999;-66
2022/03/16 09:37:50;;;;;;;14.85;9.85;;;14.10;87.50;;;;;;6310952;22;19999;-66
2022/03/16 09:40:17;;;;;;;15.43;10.90;;;14.30;86.80;;;;;;6309521;22;19999;-67
2022/03/16 09:42:48;;;;;;;14.32;10.75;;;14.60;86.60;;;;;;6310655;22;20388;-66
2022/03/16 09:45:18;;;;;;;14.57;10.70;;;14.70;86.10;;;;;;6311101;22;20003;-66
2022/03/16 09:47:45;;;;;;;15.15;11.20;;;14.70;85.10;;;;;;6310251;22;20011;-66
2022/03/16 09:50:20;;;;;;;16.88;11.63;;;14.40;86.00;;;;;;6310835;22;20033;-66
2022/03/16 09:52:47;;;;;;;12.77;9.60;;;14.20;87.10;;;;;;6310787;22;19999;-66
2022/03/16 09:55:14;;;;;;;15.27;11.60;;;14.50;86.90;;;;;;6309383;22;20000;-67
2022/03/16 09:57:41;;;;;;;14.85;10.70;;;14.80;85.10;;;;;;6311191;22;20265;-67
2022/03/16 10:00:11;;;;;;;19.23;11.98;;;14.50;85.50;;;;;;6310991;22;20265;-68
2022/03/16 10:02:37;;;;;;;16.60;11.25;;;14.60;86.20;;;;;;6312269;22;20000;-66
2022/03/16 10:05:07;;;;;;;16.77;11.45;;;14.80;85.80;;;;;;6312326;22;20014;-67
2022/03/16 10:07:34;;;;;;;14.93;10.98;;;15.00;83.50;;;;;;6312570;22;20380;-67
2022/03/16 10:15:29;;;;;;;18.63;12.57;;;14.10;85.70;;;;;;6312589;22;20015;-67
2022/03/16 10:17:59;;;;;;;14.30;10.88;;;14.00;86.30;;;;;;6312221;22;20004;-67
2022/03/16 10:20:31;;;;;;;15.07;11.13;;;14.30;87.70;;;;;;6312687;22;20025;-68
2022/03/16 10:23:09;;;;;;;16.77;12.10;;;15.20;85.00;;;;;;6312254;22;19995;-67
2022/03/16 10:25:36;;;;;;;16.33;11.57;;;15.60;83.00;;;;;;6310794;22;20005;-67
2022/03/16 10:28:12;;;;;;;18.20;11.77;;;15.70;82.30;;;;;;6312380;22;20246;-67
2022/03/16 10:30:50;;;;;;;17.25;12.38;;;15.60;82.60;;;;;;6312342;22;19999;-67
2022/03/16 10:33:16;;;;;;;16.70;11.68;;;15.40;82.40;;;;;;6312392;22;20010;-66
2022/03/16 10:36:06;;;;;;;15.70;11.88;;;15.50;83.30;;;;;;6312363;22;20025;-66
2022/03/16 10:38:58;;;;;;;16.98;12.07;;;15.70;81.60;;;;;;6311984;22;20000;-68
2022/03/16 10:47:15;;;;;;;17.98;12.38;;;14.30;86.30;;;;;;6311065;22;20355;-66
2022/03/16 10:49:43;;;;;;;17.38;12.20;;;14.50;85.20;;;;;;6311558;22;20011;-66
2022/03/16 10:52:14;;;;;;;18.85;12.93;;;14.50;85.20;;;;;;6312256;22;20011;-66
2022/03/16 10:54:40;;;;;;;18.38;13.05;;;14.70;85.00;;;;;;6310707;22;20078;-66
2022/03/16 10:57:10;;;;;;;16.48;12.90;;;14.70;85.00;;;;;;6312262;22;20066;-64
2022/03/16 10:59:37;;;;;;;20.23;13.45;;;14.50;85.30;;;;;;6311929;22;19999;-64
2022/03/16 11:02:13;;;;;;;17.25;12.95;;;14.10;86.70;;;;;;6311796;22;20000;-67
2022/03/16 11:04:44;;;;;;;22.05;13.32;;;14.00;86.50;;;;;;6312022;22;20360;-67
2022/03/16 11:07:11;;;;;;;18.33;13.32;;;14.00;87.10;;;;;;6311735;22;20054;-66
2022/03/16 11:09:38;;;;;;;18.35;13.35;;;14.00;87.10;;;;;;6309576;22;20364;-65
2022/03/16 11:14:52;;;;;;;22.92;13.73;;;14.90;84.60;;;;;;6311643;22;20006;-67
2022/03/16 11:17:18;;;;;;;20.92;14.57;;;14.70;84.30;;;;;;6311766;22;20358;-65
2022/03/16 11:19:47;;;;;;;18.05;13.52;;;14.80;85.10;;;;;;6311280;22;20080;-66
2022/03/16 11:22:16;;;;;;;21.27;15.02;;;14.60;84.00;;;;;;6312337;22;20003;-65
2022/03/16 11:24:48;;;;;;;20.90;15.32;;;14.60;83.60;;;;;;6310578;22;20234;-65
2022/03/16 11:27:24;;;;;;;24.00;16.27;;;13.60;86.10;;;;;;6311798;22;20003;-66
2022/03/16 11:30:29;;;;;;;22.23;16.38;;;13.10;88.30;;;;;;6311374;22;20026;-65
2022/03/16 11:33:03;;;;;;;23.02;16.40;;;12.70;90.10;;;;;;6283908;22;20007;-66
2022/03/16 11:35:44;;;;;;;21.80;15.63;;;12.90;89.10;;;;;;6310100;22;20096;-65
2022/03/16 11:38:13;;;;;;;20.40;15.18;;;12.90;89.40;;;;;;6310738;22;20038;-66
2022/03/16 11:40:40;;;;;;;23.95;16.05;;;13.30;88.70;;;;;;6309526;22;20086;-65
2022/03/16 11:43:11;;;;;;;20.63;14.45;;;13.90;87.40;;;;;;6311612;22;20011;-66
2022/03/16 11:45:54;;;;;;;22.25;13.68;;;14.40;86.40;;;;;;6310710;22;20029;-66
2022/03/16 11:48:33;;;;;;;19.27;12.63;;;14.30;84.00;;;;;;6310121;22;20444;-66
2022/03/16 11:51:13;;;;;;;18.75;13.05;;;14.40;84.50;;;;;;6311340;22;20018;-66
2022/03/16 11:56:31;;;;;;;19.83;12.70;;;13.80;85.40;;;;;;6309623;22;20007;-66
2022/03/16 11:59:05;;;;;;;18.38;13.27;;;13.60;85.80;;;;;;6283848;22;20003;-67
2022/03/16 12:01:32;;;;;;;21.27;14.88;;;13.50;86.30;;;;;;6310665;22;20022;-67
2022/03/16 12:04:15;;;;;;;19.88;13.65;;;12.90;87.30;;;;;;6310641;22;20071;-66
2022/03/16 12:06:53;;;;;;;17.77;13.27;;;12.80;87.60;;;;;;6310859;22;20145;-67
2022/03/16 12:09:41;;;;;;;20.50;14.43;;;13.20;87.40;;;;;;6309164;22;20007;-67
2022/03/16 12:15:36;;;;;;;22.92;14.82;;;13.50;86.10;;;;;;6310645;22;20443;-67
2022/03/16 12:18:02;;;;;;;22.58;15.63;;;13.40;86.20;;;;;;6283621;22;20056;-65
2022/03/16 12:20:45;;;;;;;25.25;17.25;;;13.30;86.90;;;;;;6309587;22;20015;-65
2022/03/16 12:23:14;;;;;;;21.90;15.18;;;13.40;87.00;;;;;;6283774;22;20003;-65
2022/03/16 12:25:43;;;;;;;24.17;16.48;;;13.90;85.50;;;;;;6282605;22;20030;-66
2022/03/16 12:31:10;;;;;;;20.02;15.07;;;14.60;83.70;;;;;;6311230;22;20014;-67
2022/03/16 12:33:42;;;;;;;20.52;14.75;;;14.40;84.00;;;;;;6310859;22;20319;-66
2022/03/16 12:36:13;;;;;;;22.02;15.98;;;14.70;83.10;;;;;;6311342;22;20256;-66
2022/03/16 12:38:41;;;;;;;26.00;17.50;;;14.70;82.80;;;;;;6310995;22;20078;-67
2022/03/16 12:44:11;;;;;;;25.08;17.25;;;14.00;84.00;;;;;;6311044;22;20042;-67
2022/03/16 12:46:50;;;;;;;26.60;17.65;;;13.70;84.40;;;;;;6310626;22;19999;-68
2022/03/16 12:49:17;;;;;;;26.35;17.83;;;13.50;86.10;;;;;;6283506;22;19999;-67
2022/03/16 12:51:52;;;;;;;23.27;16.27;;;13.20;85.90;;;;;;6310614;22;20310;-66
2022/03/16 12:54:23;;;;;;;24.50;17.08;;;13.10;87.20;;;;;;6282236;22;20499;-66
2022/03/16 12:56:51;;;;;;;25.52;17.30;;;13.10;87.10;;;;;;6311129;22;20007;-66
2022/03/16 12:59:23;;;;;;;26.98;18.65;;;13.10;87.10;;;;;;6283760;22;20265;-65
2022/03/16 13:01:53;;;;;;;25.73;17.15;;;12.90;87.30;;;;;;6283519;22;20011;-67
2022/03/16 13:04:30;;;;;;;27.63;17.58;;;12.70;87.60;;;;;;6310564;22;20003;-65